map of TOF home
TOF - Airport
Location
City:  Tomsk, Tomskaya, Russian Federation (Russia)
Name:Bogashevo Airport
ICAO:UNTT
IATA:TOF

Details
Type:Airport (Aerodrome, Airfield)
Use:Public/Civil, International (customs port of entry)
Latitude:5622'59"N (56.383056)
Longitude:8512'38"E (85.210556)
Elevation:597 ft (182 m)
Variation:8.25E (WMM2015v2 magnetic declination)
-0.06 annual change
Runways:1
Longest:8202 × 164 ft (2500 × 50 m), paved

Weather
METAR:UNTT 041400Z 00000MPS CAVOK M35/M38 Q1036 R21/420050 NOSIG RMK QFE762

Related Locations
Nearby:
Farthest:PNT: 11478 mi / 18472 km
Puerto Natales [Teniente Julio Gallardo], MA, CL

Find:

   beyond  
but within

Other Information
Maps:
NOTAMs:
Links:
Sources:

  
  • flag of Russian Federation (Russia)
  • flag of Tomskaya
  

Airport Diagram

Airport diagram for TOF

Larger airport diagram from AIP of the Russian Federation

Sectional Chart

Flight Planning
at skyvector.com

Satellite Image

Google Maps Satellite view

Yandex Maps Satellite view


 

Copyright © 2004-2019 Karl L. Swartz. All rights reserved.
The Great Circle Mapper name and logo are trademarks of the Great Circle Mapper.
All other trademarks mentioned herein belong to their respective owners.
Please see credits for attibutions and further copyright information.

  Follow gcmap on Facebook Follow gcmap on Twitter GCmap on LinkedIn

hCard Microformat

Geo Microformat